createdAt,value
2023-03-02T00:01:41.774Z,14.53
2023-03-02T00:04:12.519Z,13.53
2023-03-02T00:06:39.538Z,11.83
2023-03-02T00:09:06.496Z,14.20
2023-03-02T00:11:37.484Z,12.53
2023-03-02T00:14:05.035Z,11.40
2023-03-02T00:16:32.008Z,12.47
2023-03-02T00:18:58.929Z,10.83
2023-03-02T00:21:25.940Z,15.17
2023-03-02T00:23:53.059Z,11.70
2023-03-02T00:26:20.309Z,13.17
2023-03-02T00:28:47.329Z,11.97
2023-03-02T00:31:14.107Z,10.83
2023-03-02T00:33:40.863Z,10.80
2023-03-02T00:36:18.393Z,12.60
2023-03-02T00:38:45.233Z,12.87
2023-03-02T00:41:14.318Z,13.60
2023-03-02T00:43:41.244Z,11.13
2023-03-02T00:46:16.526Z,10.63
2023-03-02T00:48:43.474Z,14.10
2023-03-02T00:51:11.062Z,16.43
2023-03-02T00:53:38.553Z,11.47
2023-03-02T00:56:06.099Z,12.07
2023-03-02T00:58:33.189Z,11.47
2023-03-02T01:01:04.826Z,13.50
2023-03-02T01:03:31.633Z,14.13
2023-03-02T01:05:58.616Z,10.47
2023-03-02T01:08:25.299Z,12.10
2023-03-02T01:10:54.324Z,13.10
2023-03-02T01:13:21.324Z,11.53
2023-03-02T01:15:48.194Z,12.60
2023-03-02T01:18:14.987Z,13.77
2023-03-02T01:20:41.682Z,13.23
2023-03-02T01:23:08.325Z,11.23
2023-03-02T01:25:35.053Z,13.80
2023-03-02T01:28:01.746Z,13.30
2023-03-02T01:30:28.439Z,13.17
2023-03-02T01:32:55.101Z,11.83
2023-03-02T01:35:21.934Z,13.17
2023-03-02T01:37:48.646Z,13.00
2023-03-02T01:40:15.364Z,13.13
2023-03-02T01:42:51.199Z,15.93
2023-03-02T01:45:45.768Z,15.03
2023-03-02T01:48:14.526Z,13.97
2023-03-02T01:50:41.519Z,12.63
2023-03-02T01:53:08.459Z,11.47
2023-03-02T01:55:38.858Z,13.27
2023-03-02T01:58:06.822Z,14.20
2023-03-02T02:00:38.374Z,12.63
2023-03-02T02:03:16.284Z,11.00
2023-03-02T02:05:46.448Z,11.10
2023-03-02T02:08:14.001Z,11.63
2023-03-02T02:10:41.393Z,13.90
2023-03-02T02:13:11.692Z,11.07
2023-03-02T02:15:40.324Z,11.53
2023-03-02T02:18:08.025Z,14.63
2023-03-02T02:20:41.093Z,11.83
2023-03-02T02:23:27.507Z,14.77
2023-03-02T02:25:58.027Z,12.10
2023-03-02T02:28:44.800Z,14.30
2023-03-02T02:31:23.662Z,12.53
2023-03-02T02:33:55.425Z,14.87
2023-03-02T02:36:26.992Z,13.30
2023-03-02T02:38:56.319Z,11.10
2023-03-02T02:41:28.715Z,12.17
2023-03-02T02:43:56.178Z,13.00
2023-03-02T02:46:24.536Z,13.67
2023-03-02T02:48:51.517Z,13.90
2023-03-02T02:51:26.036Z,14.50
2023-03-02T02:54:00.217Z,9.57
2023-03-02T02:56:30.734Z,10.47
2023-03-02T02:59:03.162Z,14.53
2023-03-02T03:01:30.327Z,9.73
2023-03-02T03:04:01.393Z,11.57
2023-03-02T03:06:38.306Z,12.53
2023-03-02T03:09:07.089Z,11.23
2023-03-02T03:11:41.378Z,10.37
2023-03-02T03:14:10.721Z,12.63
2023-03-02T03:16:39.745Z,11.97
2023-03-02T03:19:27.892Z,12.00
2023-03-02T03:21:56.712Z,12.80
2023-03-02T03:24:24.225Z,11.87
2023-03-02T03:26:51.381Z,13.43
2023-03-02T03:29:18.867Z,10.90
2023-03-02T03:31:45.660Z,11.77
2023-03-02T03:34:12.621Z,11.53
2023-03-02T03:36:39.493Z,16.07
2023-03-02T03:39:06.413Z,12.87
2023-03-02T03:41:33.442Z,12.77
2023-03-02T03:44:00.237Z,10.57
2023-03-02T03:46:27.031Z,13.23
2023-03-02T03:48:53.919Z,13.47
2023-03-02T03:51:20.923Z,12.50
2023-03-02T03:53:59.574Z,11.73
2023-03-02T03:56:31.603Z,11.73
2023-03-02T03:59:06.390Z,11.83
2023-03-02T04:01:51.533Z,11.40
2023-03-02T04:04:21.986Z,12.03
2023-03-02T04:06:48.794Z,15.00
2023-03-02T04:09:17.983Z,11.80
2023-03-02T04:11:46.500Z,13.97
2023-03-02T04:14:14.071Z,17.27
2023-03-02T04:16:41.699Z,13.70
2023-03-02T04:19:09.505Z,12.33
2023-03-02T04:21:42.335Z,14.50
2023-03-02T04:24:09.486Z,10.80
2023-03-02T04:26:38.588Z,13.27
2023-03-02T04:29:06.258Z,12.13
2023-03-02T04:31:33.021Z,12.10
2023-03-02T04:34:00.615Z,13.33
2023-03-02T04:36:27.310Z,11.40
2023-03-02T04:38:54.407Z,12.23
2023-03-02T04:41:21.763Z,12.60
2023-03-02T04:43:49.071Z,13.87
2023-03-02T04:46:18.860Z,14.10
2023-03-02T04:48:45.772Z,12.13
2023-03-02T04:51:24.039Z,13.37
2023-03-02T04:53:52.799Z,14.77
2023-03-02T04:56:20.019Z,13.97
2023-03-02T04:58:46.745Z,15.03
2023-03-02T05:01:14.961Z,13.60
2023-03-02T05:03:42.081Z,11.40
2023-03-02T05:06:09.095Z,13.20
2023-03-02T05:08:35.841Z,12.63
2023-03-02T05:11:03.355Z,12.97
2023-03-02T05:13:30.187Z,14.50
2023-03-02T05:15:58.410Z,11.47
2023-03-02T05:18:25.376Z,13.07
2023-03-02T05:20:53.742Z,11.80
2023-03-02T05:23:25.714Z,13.50
2023-03-02T05:25:55.105Z,12.43
2023-03-02T05:28:23.223Z,12.03
2023-03-02T05:30:51.000Z,13.93
2023-03-02T05:33:18.498Z,12.47
2023-03-02T05:35:45.476Z,11.73
2023-03-02T05:38:12.492Z,11.47
2023-03-02T05:40:40.421Z,13.80
2023-03-02T05:43:07.381Z,16.47
2023-03-02T05:45:38.772Z,12.13
2023-03-02T05:48:06.005Z,12.60
2023-03-02T05:50:33.155Z,11.27
2023-03-02T05:53:02.370Z,12.60
2023-03-02T05:55:29.616Z,13.17
2023-03-02T05:57:56.945Z,11.70
2023-03-02T06:00:24.032Z,11.93
2023-03-02T06:02:50.872Z,11.77
2023-03-02T06:05:19.609Z,9.80
2023-03-02T06:07:46.564Z,12.07
2023-03-02T06:10:13.998Z,12.97
2023-03-02T06:12:40.913Z,16.10
2023-03-02T06:15:08.897Z,9.33
2023-03-02T06:17:35.870Z,16.37
2023-03-02T06:20:04.986Z,12.93
2023-03-02T06:22:31.673Z,11.07
2023-03-02T06:24:58.325Z,10.63
2023-03-02T06:27:24.970Z,12.50
2023-03-02T06:29:51.752Z,12.20
2023-03-02T06:32:18.510Z,10.50
2023-03-02T06:34:45.275Z,13.77
2023-03-02T06:37:11.991Z,10.87
2023-03-02T06:39:38.749Z,14.03
2023-03-02T06:42:05.479Z,10.80
2023-03-02T06:44:32.314Z,13.40
2023-03-02T06:46:58.957Z,11.03
2023-03-02T06:49:25.747Z,11.83
2023-03-02T06:51:52.403Z,14.23
2023-03-02T06:54:19.094Z,12.97
2023-03-02T06:56:45.740Z,11.87
2023-03-02T06:59:12.377Z,13.87
2023-03-02T07:01:39.104Z,10.93
2023-03-02T07:04:05.864Z,13.10
2023-03-02T07:06:32.639Z,8.90
2023-03-02T07:08:59.271Z,13.83
2023-03-02T07:11:25.916Z,12.43
2023-03-02T07:13:52.626Z,12.47
2023-03-02T07:16:19.369Z,11.90
2023-03-02T07:18:46.088Z,14.03
2023-03-02T07:21:12.779Z,11.87
2023-03-02T07:23:39.441Z,16.23
2023-03-02T07:26:08.518Z,13.67
2023-03-02T07:28:41.677Z,13.33
2023-03-02T07:31:09.665Z,12.67
2023-03-02T07:33:37.668Z,15.77
2023-03-02T07:36:05.399Z,14.10
2023-03-02T07:38:32.354Z,14.73
2023-03-02T07:40:59.036Z,13.33
2023-03-02T07:43:26.564Z,14.40
2023-03-02T07:45:53.287Z,12.80
2023-03-02T07:48:20.093Z,12.50
2023-03-02T07:50:46.822Z,14.43
2023-03-02T07:53:13.449Z,13.67
2023-03-02T07:55:41.534Z,12.03
2023-03-02T07:58:08.509Z,17.23
2023-03-02T08:00:36.663Z,12.10
2023-03-02T08:03:03.503Z,11.50
2023-03-02T08:05:31.126Z,12.83
2023-03-02T08:07:57.927Z,12.80
2023-03-02T08:10:24.594Z,13.20
2023-03-02T08:12:51.273Z,10.27
2023-03-02T08:15:18.014Z,12.20
2023-03-02T08:17:45.056Z,12.40
2023-03-02T08:20:12.270Z,11.63
2023-03-02T08:22:39.044Z,11.47
2023-03-02T08:25:07.226Z,13.77
2023-03-02T08:27:34.032Z,13.93
2023-03-02T08:30:00.711Z,10.80
2023-03-02T08:32:27.604Z,12.03
2023-03-02T08:34:54.489Z,12.57
2023-03-02T08:37:21.192Z,12.43
2023-03-02T08:39:48.394Z,12.63
2023-03-02T08:42:15.196Z,12.07
2023-03-02T08:44:41.861Z,16.80
2023-03-02T08:47:08.582Z,11.53
2023-03-02T08:49:38.047Z,11.23
2023-03-02T08:52:05.364Z,11.20
2023-03-02T08:54:34.455Z,14.87
2023-03-02T08:57:02.493Z,12.57
2023-03-02T08:59:29.205Z,10.87
2023-03-02T09:01:55.889Z,12.70
2023-03-02T09:04:22.669Z,14.10
2023-03-02T09:06:49.429Z,10.83
2023-03-02T09:09:16.113Z,13.77
2023-03-02T09:11:44.762Z,12.03
2023-03-02T09:14:12.373Z,11.67
2023-03-02T09:16:39.482Z,12.73
2023-03-02T09:19:06.562Z,13.47
2023-03-02T09:21:33.516Z,11.27
2023-03-02T09:24:00.503Z,11.80
2023-03-02T09:26:27.945Z,12.23
2023-03-02T09:28:55.665Z,9.03
2023-03-02T09:31:22.608Z,12.93
2023-03-02T09:33:49.371Z,10.83
2023-03-02T09:36:23.621Z,12.37
2023-03-02T09:38:50.493Z,10.53
2023-03-02T09:41:20.228Z,17.33
2023-03-02T09:44:08.194Z,11.93
2023-03-02T09:46:52.138Z,13.60
2023-03-02T09:50:02.992Z,12.00
2023-03-02T09:52:55.876Z,10.47
2023-03-02T09:55:27.517Z,10.47
2023-03-02T09:57:55.467Z,14.13
2023-03-02T10:00:22.585Z,12.00
2023-03-02T10:02:54.008Z,9.87
2023-03-02T10:05:27.262Z,12.23
2023-03-02T10:07:53.993Z,11.33
2023-03-02T10:10:33.599Z,11.83
2023-03-02T10:13:08.959Z,10.10
2023-03-02T10:15:38.481Z,11.30
2023-03-02T10:18:05.704Z,11.23
2023-03-02T10:20:43.598Z,10.90
2023-03-02T10:23:33.497Z,14.03
2023-03-02T10:26:17.634Z,11.07
2023-03-02T10:28:50.037Z,11.57
2023-03-02T10:31:27.285Z,10.40
2023-03-02T10:33:54.451Z,11.60
2023-03-02T10:36:37.338Z,11.67
2023-03-02T10:39:12.315Z,9.60
2023-03-02T10:41:46.282Z,11.50
2023-03-02T10:44:27.329Z,11.97
2023-03-02T10:46:54.509Z,13.30
2023-03-02T10:49:30.145Z,11.97
2023-03-02T10:51:59.927Z,11.47
2023-03-02T10:54:28.728Z,11.10
2023-03-02T10:56:58.723Z,11.77
2023-03-02T10:59:25.970Z,11.07
2023-03-02T11:02:19.144Z,12.27
2023-03-02T11:04:46.039Z,12.13
2023-03-02T11:07:21.336Z,10.33
2023-03-02T11:10:20.065Z,12.43
2023-03-02T11:12:49.047Z,12.47
2023-03-02T11:15:18.328Z,13.70
2023-03-02T11:17:48.183Z,13.77
2023-03-02T11:20:26.101Z,12.03
2023-03-02T11:23:13.424Z,15.07
2023-03-02T11:25:48.413Z,15.10
2023-03-02T11:28:33.252Z,11.23
2023-03-02T11:31:02.470Z,12.27
2023-03-02T11:33:52.553Z,14.17
2023-03-02T11:36:23.799Z,9.93
2023-03-02T11:38:54.932Z,13.27
2023-03-02T11:41:29.842Z,14.80
2023-03-02T11:44:20.265Z,13.57
2023-03-02T11:46:51.191Z,11.00
2023-03-02T11:49:28.782Z,12.90
2023-03-02T11:51:58.898Z,12.00
2023-03-02T11:54:40.850Z,11.50
2023-03-02T11:57:20.424Z,12.40
2023-03-02T11:59:47.867Z,12.23
2023-03-02T12:02:15.253Z,11.83
2023-03-02T12:04:42.747Z,11.47
2023-03-02T12:07:25.005Z,11.83
2023-03-02T12:10:06.109Z,11.70
2023-03-02T12:12:44.074Z,9.93
2023-03-02T12:15:35.151Z,10.93
2023-03-02T12:18:02.262Z,12.53
2023-03-02T12:20:30.986Z,14.03
2023-03-02T12:23:09.623Z,11.17
2023-03-02T12:25:40.407Z,11.57
2023-03-02T12:28:26.592Z,11.30
2023-03-02T12:31:02.754Z,10.23
2023-03-02T12:33:29.820Z,16.20
2023-03-02T12:36:21.008Z,13.63
2023-03-02T12:38:59.916Z,12.83
2023-03-02T12:41:32.668Z,12.73
2023-03-02T12:44:20.373Z,11.20
2023-03-02T12:46:48.328Z,12.03
2023-03-02T12:49:32.393Z,10.90
2023-03-02T12:52:21.150Z,13.17
2023-03-02T12:55:19.958Z,13.10
2023-03-02T12:57:56.427Z,10.17
2023-03-02T13:00:26.935Z,11.20
2023-03-02T13:02:56.144Z,12.77
2023-03-02T13:05:26.070Z,14.03
2023-03-02T13:08:00.688Z,11.43
2023-03-02T13:10:27.929Z,11.33
2023-03-02T13:12:54.801Z,11.03
2023-03-02T13:15:21.567Z,11.87
2023-03-02T13:17:57.075Z,15.70
2023-03-02T13:20:27.985Z,10.30
2023-03-02T13:22:55.292Z,11.53
2023-03-02T13:25:28.386Z,12.40
2023-03-02T13:28:07.833Z,9.97
2023-03-02T13:30:37.436Z,12.23
2023-03-02T13:33:22.614Z,11.93
2023-03-02T13:35:49.781Z,12.30
2023-03-02T13:38:18.887Z,8.87
2023-03-02T13:40:48.449Z,9.17
2023-03-02T13:43:30.468Z,9.70
2023-03-02T13:46:25.587Z,11.67
2023-03-02T13:49:11.310Z,12.00
2023-03-02T13:51:42.054Z,9.87
2023-03-02T13:54:25.828Z,8.50
2023-03-02T13:56:53.791Z,13.90
2023-03-02T13:59:21.980Z,10.03
2023-03-02T14:01:48.735Z,16.10
2023-03-02T14:04:17.977Z,8.77
2023-03-02T14:06:45.848Z,13.17
2023-03-02T14:09:13.352Z,9.40
2023-03-02T14:11:46.757Z,10.87
2023-03-02T14:14:19.420Z,9.37
2023-03-02T14:16:46.210Z,8.30
2023-03-02T14:19:13.756Z,9.03
2023-03-02T14:21:42.055Z,6.47
2023-03-02T14:24:09.213Z,8.50
2023-03-02T14:26:44.426Z,7.83
2023-03-02T14:29:26.752Z,7.77
2023-03-02T14:32:00.109Z,7.23
2023-03-02T14:34:27.319Z,7.73
2023-03-02T14:36:58.140Z,7.83
2023-03-02T14:39:42.939Z,7.10
2023-03-02T14:42:16.457Z,6.97
2023-03-02T14:44:44.662Z,6.07
2023-03-02T14:47:11.716Z,6.23
2023-03-02T14:49:39.190Z,9.00
2023-03-02T14:52:16.412Z,6.70
2023-03-02T14:54:56.165Z,9.57
2023-03-02T14:57:25.691Z,8.03
2023-03-02T14:59:53.591Z,7.70
2023-03-02T15:02:26.027Z,6.63
2023-03-02T15:04:56.529Z,7.67
2023-03-02T15:07:24.654Z,8.57
2023-03-02T15:09:51.353Z,8.10
2023-03-02T15:12:18.067Z,8.37
2023-03-02T15:14:45.125Z,7.67
2023-03-02T15:17:12.396Z,5.97
2023-03-02T15:19:39.165Z,7.20
2023-03-02T15:22:05.844Z,8.33
2023-03-02T15:24:33.548Z,8.83
2023-03-02T15:27:01.024Z,7.70
2023-03-02T15:29:28.114Z,6.10
2023-03-02T15:31:55.400Z,6.80
2023-03-02T15:34:22.546Z,7.73
2023-03-02T15:36:49.254Z,9.87
2023-03-02T15:39:16.771Z,5.87
2023-03-02T15:41:43.638Z,5.03
2023-03-02T15:44:21.701Z,5.93
2023-03-02T15:46:56.391Z,4.90
2023-03-02T15:49:24.887Z,6.47
2023-03-02T15:51:52.779Z,8.07
2023-03-02T15:54:19.513Z,6.17
2023-03-02T15:56:49.537Z,5.97
2023-03-02T15:59:16.290Z,8.17
2023-03-02T16:01:42.986Z,5.80
2023-03-02T16:04:10.277Z,7.10
2023-03-02T16:06:37.233Z,5.83
2023-03-02T16:09:04.479Z,5.70
2023-03-02T16:11:31.167Z,7.33
2023-03-02T16:13:57.855Z,5.20
2023-03-02T16:16:24.852Z,4.80
2023-03-02T16:18:53.306Z,6.00
2023-03-02T16:21:20.589Z,7.27
2023-03-02T16:23:47.384Z,8.53
2023-03-02T16:26:16.356Z,10.43
2023-03-02T16:28:43.226Z,6.90
2023-03-02T16:31:15.421Z,7.77
2023-03-02T16:33:42.271Z,8.10
2023-03-02T16:36:09.600Z,6.40
2023-03-02T16:38:37.452Z,10.37
2023-03-02T16:41:10.094Z,6.00
2023-03-02T16:43:44.150Z,9.27
2023-03-02T16:46:10.951Z,5.40
2023-03-02T16:48:37.701Z,5.83
2023-03-02T16:51:04.921Z,5.93
2023-03-02T16:53:31.848Z,5.37
2023-03-02T16:55:58.635Z,6.43
2023-03-02T16:58:25.800Z,7.07
2023-03-02T17:00:52.663Z,6.53
2023-03-02T17:03:19.410Z,6.80
2023-03-02T17:05:46.252Z,7.33
2023-03-02T17:08:15.267Z,8.83
2023-03-02T17:10:43.148Z,7.87
2023-03-02T17:13:12.121Z,5.53
2023-03-02T17:15:38.924Z,6.63
2023-03-02T17:18:05.673Z,5.60
2023-03-02T17:20:32.328Z,10.30
2023-03-02T17:22:59.043Z,6.90
2023-03-02T17:25:26.062Z,7.00
2023-03-02T17:27:52.800Z,9.53
2023-03-02T17:30:20.138Z,8.40
2023-03-02T17:32:47.081Z,11.40
2023-03-02T17:35:14.260Z,7.97
2023-03-02T17:37:41.213Z,5.73
2023-03-02T17:40:08.808Z,10.83
2023-03-02T17:42:35.908Z,8.83
2023-03-02T17:45:02.652Z,7.83
2023-03-02T17:47:30.603Z,10.57
2023-03-02T17:49:58.339Z,12.90
2023-03-02T17:52:25.405Z,11.00
2023-03-02T17:54:54.095Z,7.23
2023-03-02T17:57:22.627Z,8.43
2023-03-02T17:59:52.766Z,6.97
2023-03-02T18:02:19.505Z,6.90
2023-03-02T18:04:46.310Z,9.07
2023-03-02T18:07:14.207Z,7.47
2023-03-02T18:09:40.863Z,7.17
2023-03-02T18:12:08.042Z,8.20
2023-03-02T18:14:36.270Z,6.17
2023-03-02T18:17:04.964Z,7.60
2023-03-02T18:19:31.698Z,9.97
2023-03-02T18:21:58.667Z,10.87
2023-03-02T18:24:25.958Z,10.13
2023-03-02T18:26:52.806Z,8.80
2023-03-02T18:29:19.645Z,8.83
2023-03-02T18:31:46.379Z,9.17
2023-03-02T18:34:13.213Z,5.63
2023-03-02T18:36:39.951Z,7.60
2023-03-02T18:39:06.637Z,6.53
2023-03-02T18:41:33.346Z,9.73
2023-03-02T18:44:01.287Z,7.73
2023-03-02T18:46:30.634Z,7.50
2023-03-02T18:48:58.369Z,9.70
2023-03-02T18:51:25.623Z,9.07
2023-03-02T18:53:53.298Z,8.77
2023-03-02T18:56:20.555Z,8.60
2023-03-02T18:58:49.610Z,7.90
2023-03-02T19:01:16.803Z,9.30
2023-03-02T19:03:45.711Z,8.50
2023-03-02T19:06:13.201Z,9.23
2023-03-02T19:08:41.571Z,11.37
2023-03-02T19:11:08.777Z,11.50
2023-03-02T19:13:35.546Z,14.77
2023-03-02T19:16:03.055Z,12.73
2023-03-02T19:18:30.896Z,14.67
2023-03-02T19:20:57.883Z,13.37
2023-03-02T19:23:25.161Z,11.40
2023-03-02T19:25:52.420Z,11.20
2023-03-02T19:28:21.588Z,13.63
2023-03-02T19:30:49.483Z,11.97
2023-03-02T19:33:16.573Z,14.83
2023-03-02T19:35:43.670Z,14.73
2023-03-02T19:38:10.901Z,17.77
2023-03-02T19:40:38.111Z,18.93
2023-03-02T19:43:05.237Z,21.80
2023-03-02T19:45:34.818Z,27.53
2023-03-02T19:48:02.744Z,44.53
2023-03-02T19:50:30.228Z,32.93
2023-03-02T19:52:57.916Z,35.40
2023-03-02T19:55:25.528Z,28.33
2023-03-02T19:57:59.463Z,24.63
2023-03-02T20:00:28.218Z,22.23
2023-03-02T20:02:55.348Z,20.53
2023-03-02T20:05:22.121Z,21.23
2023-03-02T20:07:49.002Z,20.60
2023-03-02T20:10:46.174Z,20.47
2023-03-02T20:13:12.986Z,23.60
2023-03-02T20:15:41.656Z,23.03
2023-03-02T20:18:11.288Z,21.80
2023-03-02T23:49:35.305Z,38.03
2023-03-02T23:52:02.169Z,32.77
2023-03-02T23:54:28.878Z,36.57
2023-03-02T23:56:55.870Z,39.00
2023-03-02T23:59:22.541Z,37.90
